createdAt,value
2022-10-25T00:01:30.796Z,2.13
2022-10-25T00:03:59.506Z,2.03
2022-10-25T00:06:28.204Z,1.67
2022-10-25T00:08:56.532Z,1.17
2022-10-25T00:11:25.769Z,1.20
2022-10-25T00:13:57.187Z,1.60
2022-10-25T00:16:26.598Z,2.80
2022-10-25T00:18:55.127Z,1.67
2022-10-25T00:21:23.795Z,2.93
2022-10-25T00:23:52.610Z,1.40
2022-10-25T00:26:21.687Z,2.13
2022-10-25T00:28:50.169Z,1.90
2022-10-25T00:31:19.899Z,2.40
2022-10-25T00:33:48.187Z,3.27
2022-10-25T00:36:17.875Z,2.97
2022-10-25T00:38:46.560Z,3.03
2022-10-25T00:41:15.600Z,2.63
2022-10-25T00:43:45.072Z,1.10
2022-10-25T00:46:15.637Z,4.40
2022-10-25T00:48:49.223Z,2.93
2022-10-25T00:51:17.637Z,2.57
2022-10-25T00:53:46.056Z,3.47
2022-10-25T00:56:16.000Z,1.70
2022-10-25T00:58:47.255Z,5.10
2022-10-25T01:01:15.987Z,3.40
2022-10-25T01:03:46.783Z,2.97
2022-10-25T01:06:19.327Z,4.13
2022-10-25T01:08:48.431Z,2.87
2022-10-25T01:13:46.100Z,2.40
2022-10-25T01:16:19.009Z,1.67
2022-10-25T01:18:53.226Z,1.90
2022-10-25T01:21:36.400Z,3.17
2022-10-25T01:24:16.555Z,1.77
2022-10-25T01:26:52.750Z,2.70
2022-10-25T01:29:38.742Z,2.57
2022-10-25T01:32:10.489Z,1.77
2022-10-25T01:34:42.376Z,8.93
2022-10-25T01:37:13.116Z,3.33
2022-10-25T01:39:43.220Z,6.00
2022-10-25T01:42:16.714Z,1.70
2022-10-25T01:44:48.707Z,2.90
2022-10-25T01:47:20.138Z,1.63
2022-10-25T01:49:49.695Z,1.67
2022-10-25T01:52:21.270Z,2.43
2022-10-25T01:54:49.622Z,2.40
2022-10-25T01:57:36.159Z,1.90
2022-10-25T02:00:08.532Z,2.23
2022-10-25T02:05:28.482Z,1.40
2022-10-25T02:08:02.031Z,1.97
2022-10-25T02:10:33.221Z,2.70
2022-10-25T02:13:04.753Z,1.70
2022-10-25T02:15:37.422Z,0.83
2022-10-25T02:18:08.625Z,2.47
2022-10-25T02:20:40.810Z,3.77
2022-10-25T02:23:11.428Z,2.00
2022-10-25T02:25:41.677Z,3.27
2022-10-25T02:28:12.280Z,1.23
2022-10-25T02:30:42.012Z,1.53
2022-10-25T02:33:10.454Z,2.47
2022-10-25T02:35:40.817Z,1.77
2022-10-25T02:38:09.474Z,0.50
2022-10-25T02:40:38.096Z,2.63
2022-10-25T02:43:06.451Z,2.30
2022-10-25T02:45:34.829Z,1.30
2022-10-25T02:48:03.213Z,2.10
2022-10-25T02:50:31.554Z,1.60
2022-10-25T02:53:01.212Z,1.97
2022-10-25T02:55:29.586Z,1.40
2022-10-25T02:57:57.878Z,2.40
2022-10-25T03:00:26.330Z,2.40
2022-10-25T03:02:54.683Z,0.60
2022-10-25T03:05:23.162Z,2.80
2022-10-25T03:07:51.507Z,3.13
2022-10-25T03:10:21.153Z,1.37
2022-10-25T03:12:49.692Z,1.60
2022-10-25T03:15:18.283Z,1.23
2022-10-25T03:17:46.956Z,2.10
2022-10-25T03:20:15.600Z,2.33
2022-10-25T03:22:43.952Z,2.23
2022-10-25T03:25:12.335Z,2.70
2022-10-25T03:27:42.333Z,2.03
2022-10-25T03:30:10.852Z,2.30
2022-10-25T03:32:39.379Z,1.90
2022-10-25T03:35:08.541Z,2.63
2022-10-25T03:37:36.914Z,1.67
2022-10-25T03:40:05.772Z,0.90
2022-10-25T03:42:34.132Z,3.47
2022-10-25T03:45:03.855Z,1.23
2022-10-25T03:47:32.243Z,1.63
2022-10-25T03:50:00.534Z,0.40
2022-10-25T03:52:28.888Z,1.60
2022-10-25T03:54:57.331Z,2.03
2022-10-25T03:57:25.679Z,4.00
2022-10-25T03:59:54.083Z,0.70
2022-10-25T04:02:23.834Z,1.17
2022-10-25T04:04:52.343Z,1.07
2022-10-25T04:07:21.057Z,1.67
2022-10-25T04:09:49.388Z,2.20
2022-10-25T04:12:17.767Z,1.27
2022-10-25T04:14:46.104Z,1.33
2022-10-25T04:17:14.431Z,2.10
2022-10-25T04:19:44.177Z,2.73
2022-10-25T04:22:13.595Z,2.00
2022-10-25T04:24:41.969Z,1.40
2022-10-25T04:27:10.344Z,1.13
2022-10-25T04:29:38.758Z,1.43
2022-10-25T04:32:07.853Z,0.83
2022-10-25T04:34:36.495Z,3.07
2022-10-25T04:37:06.174Z,1.43
2022-10-25T04:39:34.587Z,1.27
2022-10-25T04:42:03.099Z,1.63
2022-10-25T04:44:31.530Z,1.07
2022-10-25T04:46:59.995Z,0.80
2022-10-25T04:49:28.452Z,1.73
2022-10-25T04:51:56.816Z,1.00
2022-10-25T04:54:26.568Z,1.33
2022-10-25T04:56:54.949Z,1.10
2022-10-25T04:59:23.287Z,2.30
2022-10-25T05:04:19.865Z,1.50
2022-10-25T05:06:48.257Z,0.90
2022-10-25T05:09:16.610Z,1.60
2022-10-25T05:11:46.424Z,1.43
2022-10-25T05:14:15.865Z,0.97
2022-10-25T05:16:44.229Z,1.00
2022-10-25T05:19:12.610Z,1.83
2022-10-25T05:21:40.908Z,1.00
2022-10-25T05:24:09.364Z,1.80
2022-10-25T05:26:37.930Z,0.50
2022-10-25T05:29:10.276Z,2.40
2022-10-25T05:31:42.116Z,2.63
2022-10-25T05:34:11.918Z,0.80
2022-10-25T05:36:40.341Z,0.40
2022-10-25T05:39:08.876Z,1.37
2022-10-25T05:41:37.483Z,1.33
2022-10-25T05:44:06.458Z,1.03
2022-10-25T05:46:36.317Z,0.90
2022-10-25T05:49:05.415Z,2.03
2022-10-25T05:51:35.642Z,2.10
2022-10-25T05:54:05.606Z,1.37
2022-10-25T05:56:34.566Z,1.07
2022-10-25T05:59:03.902Z,0.40
2022-10-25T06:01:32.547Z,1.10
2022-10-25T06:04:02.410Z,1.93
2022-10-25T06:06:30.826Z,1.60
2022-10-25T06:08:59.218Z,1.57
2022-10-25T06:11:28.021Z,1.77
2022-10-25T06:13:56.477Z,2.37
2022-10-25T06:16:25.385Z,0.90
2022-10-25T06:18:54.849Z,1.30
2022-10-25T06:21:25.555Z,1.13
2022-10-25T06:23:54.284Z,1.43
2022-10-25T06:26:23.939Z,1.53
2022-10-25T06:28:53.787Z,1.63
2022-10-25T06:31:22.484Z,0.87
2022-10-25T06:33:58.968Z,0.63
2022-10-25T06:36:29.075Z,1.23
2022-10-25T06:39:01.762Z,3.30
2022-10-25T06:41:32.442Z,1.27
2022-10-25T06:44:06.202Z,1.17
2022-10-25T06:46:57.921Z,1.83
2022-10-25T06:49:24.965Z,1.80
2022-10-25T06:51:54.900Z,1.83
2022-10-25T06:54:25.558Z,0.60
2022-10-25T06:56:54.646Z,1.17
2022-10-25T06:59:27.414Z,1.63
2022-10-25T07:01:58.945Z,2.17
2022-10-25T07:04:32.597Z,1.17
2022-10-25T07:07:03.337Z,0.83
2022-10-25T07:09:32.021Z,0.77
2022-10-25T07:12:07.636Z,1.20
2022-10-25T07:14:39.181Z,1.27
2022-10-25T07:17:07.983Z,2.40
2022-10-25T07:19:36.608Z,1.10
2022-10-25T07:22:06.564Z,0.90
2022-10-25T07:24:36.181Z,1.07
2022-10-25T07:27:04.860Z,1.00
2022-10-25T07:29:33.327Z,0.90
2022-10-25T07:32:02.006Z,1.13
2022-10-25T07:34:30.748Z,0.50
2022-10-25T07:36:59.329Z,0.90
2022-10-25T07:39:30.588Z,1.30
2022-10-25T07:41:59.062Z,1.23
2022-10-25T07:44:27.567Z,0.83
2022-10-25T07:46:56.310Z,1.73
2022-10-25T07:49:25.014Z,0.80
2022-10-25T07:51:53.649Z,1.07
2022-10-25T07:54:22.196Z,1.77
2022-10-25T07:56:54.043Z,0.70
2022-10-25T07:59:22.734Z,0.60
2022-10-25T08:01:51.342Z,1.27
2022-10-25T08:04:22.971Z,1.00
2022-10-25T08:06:51.548Z,0.40
2022-10-25T08:09:37.291Z,2.83
2022-10-25T08:12:08.169Z,0.40
2022-10-25T08:14:40.709Z,4.83
2022-10-25T08:17:11.004Z,1.13
2022-10-25T08:19:39.431Z,1.77
2022-10-25T08:22:08.012Z,2.27
2022-10-25T08:24:38.731Z,1.17
2022-10-25T08:27:08.807Z,1.60
2022-10-25T08:29:37.704Z,1.03
2022-10-25T08:32:06.515Z,0.70
2022-10-25T08:34:36.033Z,3.60
2022-10-25T08:37:04.558Z,1.47
2022-10-25T08:39:33.205Z,1.03
2022-10-25T08:42:04.866Z,0.83
2022-10-25T08:44:45.660Z,0.60
2022-10-25T08:47:19.289Z,1.10
2022-10-25T08:49:51.555Z,0.93
2022-10-25T08:52:21.616Z,1.43
2022-10-25T08:54:52.101Z,1.13
2022-10-25T08:57:24.638Z,2.20
2022-10-25T08:59:56.185Z,1.23
2022-10-25T09:02:34.700Z,2.33
2022-10-25T09:05:03.464Z,0.50
2022-10-25T09:07:43.133Z,1.10
2022-10-25T09:10:20.119Z,1.00
2022-10-25T09:12:53.813Z,0.97
2022-10-25T09:15:30.403Z,1.67
2022-10-25T09:17:58.903Z,1.60
2022-10-25T09:20:29.204Z,2.43
2022-10-25T09:23:00.924Z,1.23
2022-10-25T09:25:33.834Z,0.63
2022-10-25T09:28:03.788Z,0.50
2022-10-25T09:30:37.843Z,1.00
2022-10-25T09:33:07.961Z,1.10
2022-10-25T09:35:43.614Z,0.90
2022-10-25T09:38:15.090Z,0.80
2022-10-25T09:40:48.020Z,1.07
2022-10-25T09:43:18.921Z,1.27
2022-10-25T09:45:49.990Z,0.80
2022-10-25T09:48:22.812Z,0.80
2022-10-25T09:50:55.688Z,1.33
2022-10-25T09:53:24.566Z,1.37
2022-10-25T09:55:55.328Z,3.10
2022-10-25T09:58:24.924Z,1.27
2022-10-25T10:00:55.965Z,1.03
2022-10-25T10:03:24.925Z,1.23
2022-10-25T10:05:56.813Z,2.00
2022-10-25T10:08:26.192Z,2.73
2022-10-25T10:10:55.985Z,2.10
2022-10-25T10:13:29.222Z,1.63
2022-10-25T10:16:22.295Z,1.30
2022-10-25T10:18:50.984Z,2.70
2022-10-25T10:21:25.434Z,1.27
2022-10-25T10:24:00.717Z,3.13
2022-10-25T10:26:36.614Z,4.77
2022-10-25T10:29:08.893Z,2.57
2022-10-25T10:31:40.825Z,2.83
2022-10-25T10:34:23.145Z,3.33
2022-10-25T10:37:03.230Z,1.77
2022-10-25T10:39:33.236Z,1.73
2022-10-25T10:42:05.512Z,2.77
2022-10-25T10:44:37.595Z,2.50
2022-10-25T10:47:12.672Z,4.37
2022-10-25T10:49:42.637Z,2.00
2022-10-25T10:52:27.976Z,2.60
2022-10-25T10:54:56.963Z,2.17
2022-10-25T10:57:32.188Z,2.87
2022-10-25T11:00:03.942Z,1.70
2022-10-25T11:02:41.248Z,2.63
2022-10-25T11:05:24.155Z,3.00
2022-10-25T11:07:57.485Z,2.30
2022-10-25T11:10:27.497Z,0.83
2022-10-25T11:13:28.268Z,4.27
2022-10-25T11:16:02.396Z,3.03
2022-10-25T11:18:37.432Z,4.40
2022-10-25T11:21:09.738Z,2.43
2022-10-25T11:23:42.962Z,2.40
2022-10-25T11:26:15.309Z,2.70
2022-10-25T11:28:47.835Z,4.20
2022-10-25T11:31:23.032Z,2.50
2022-10-25T11:33:58.782Z,2.73
2022-10-25T11:36:32.848Z,3.23
2022-10-25T11:39:08.714Z,2.57
2022-10-25T11:41:59.000Z,3.37
2022-10-25T11:44:39.791Z,2.70
2022-10-25T11:47:19.668Z,2.27
2022-10-25T11:50:04.389Z,2.33
2022-10-25T11:52:57.293Z,0.47
2022-10-25T11:55:33.669Z,1.63
2022-10-25T11:58:07.992Z,2.70
2022-10-25T12:00:41.243Z,1.90
2022-10-25T12:03:21.188Z,2.53
2022-10-25T12:05:55.501Z,1.73
2022-10-25T12:08:31.130Z,2.80
2022-10-25T12:11:03.335Z,1.63
2022-10-25T12:13:32.934Z,1.60
2022-10-25T12:16:01.926Z,3.73
2022-10-25T12:18:39.088Z,1.23
2022-10-25T12:21:10.115Z,2.70
2022-10-25T12:23:42.956Z,1.27
2022-10-25T12:26:13.718Z,1.00
2022-10-25T12:28:45.324Z,1.47
2022-10-25T12:31:26.162Z,2.83
2022-10-25T12:34:02.868Z,2.43
2022-10-25T12:36:33.861Z,2.17
2022-10-25T12:39:06.698Z,2.73
2022-10-25T12:41:36.817Z,1.77
2022-10-25T12:44:11.270Z,3.10
2022-10-25T12:46:50.997Z,2.27
2022-10-25T12:49:41.505Z,2.30
2022-10-25T12:52:30.100Z,4.80
2022-10-25T12:55:11.167Z,2.57
2022-10-25T12:57:48.226Z,3.03
2022-10-25T13:03:10.387Z,2.97
2022-10-25T13:06:03.280Z,1.63
2022-10-25T13:08:33.533Z,2.90
2022-10-25T13:11:06.717Z,0.83
2022-10-25T13:13:39.012Z,2.33
2022-10-25T13:16:08.816Z,1.73
2022-10-25T13:18:41.786Z,1.73
2022-10-25T13:21:12.706Z,2.97
2022-10-25T13:24:02.773Z,1.77
2022-10-25T13:26:57.209Z,3.10
2022-10-25T13:29:44.342Z,1.67
2022-10-25T13:32:17.764Z,1.97
2022-10-25T13:34:47.449Z,2.07
2022-10-25T13:37:34.600Z,1.97
2022-10-25T13:40:05.124Z,1.87
2022-10-25T13:42:34.396Z,1.77
2022-10-25T13:45:08.768Z,2.53
2022-10-25T13:47:40.191Z,1.60
2022-10-25T13:50:22.006Z,1.80
2022-10-25T13:52:58.908Z,1.10
2022-10-25T13:55:34.583Z,1.73
2022-10-25T13:58:03.129Z,2.20
2022-10-25T14:00:34.752Z,2.03
2022-10-25T14:03:18.287Z,1.10
2022-10-25T14:06:18.311Z,2.27
2022-10-25T14:08:51.681Z,1.63
2022-10-25T14:11:21.697Z,2.30
2022-10-25T14:13:54.264Z,2.10
2022-10-25T14:16:26.385Z,2.47
2022-10-25T14:18:55.845Z,0.60
2022-10-25T14:21:25.915Z,1.60
2022-10-25T14:23:56.422Z,2.03
2022-10-25T14:26:25.275Z,2.00
2022-10-25T14:28:53.946Z,1.60
2022-10-25T14:31:23.358Z,1.33
2022-10-25T14:33:52.854Z,1.47
2022-10-25T14:36:28.467Z,0.93
2022-10-25T14:38:59.234Z,1.53
2022-10-25T14:41:28.538Z,1.57
2022-10-25T14:43:57.504Z,2.17
2022-10-25T14:46:26.633Z,1.93
2022-10-25T14:48:56.272Z,1.87
2022-10-25T14:51:30.300Z,1.43
2022-10-25T14:54:02.054Z,0.70
2022-10-25T14:56:32.057Z,1.33
2022-10-25T14:59:01.135Z,1.03
2022-10-25T15:01:30.253Z,1.30
2022-10-25T15:03:59.925Z,1.43
2022-10-25T15:06:30.149Z,1.60
2022-10-25T15:09:37.044Z,1.57
2022-10-25T15:12:10.352Z,1.33
2022-10-25T15:14:39.035Z,1.50
2022-10-25T15:17:16.574Z,1.70
2022-10-25T15:20:16.471Z,1.63
2022-10-25T15:22:46.260Z,1.83
2022-10-25T15:25:20.196Z,2.60
2022-10-25T15:27:48.597Z,1.80
2022-10-25T15:30:31.886Z,1.07
2022-10-25T15:33:00.307Z,1.23
2022-10-25T15:35:29.077Z,1.10
2022-10-25T15:37:57.893Z,1.27
2022-10-25T15:40:29.812Z,2.77
2022-10-25T15:42:58.284Z,1.40
2022-10-25T15:45:26.697Z,0.80
2022-10-25T15:47:57.426Z,0.80
2022-10-25T15:50:26.221Z,0.77
2022-10-25T15:52:55.854Z,1.20
2022-10-25T15:55:25.647Z,0.87
2022-10-25T15:57:55.990Z,1.63
2022-10-25T16:00:28.003Z,1.13
2022-10-25T16:02:56.882Z,2.20
2022-10-25T16:05:26.454Z,1.60
2022-10-25T16:07:54.770Z,2.03
2022-10-25T16:10:24.119Z,2.37
2022-10-25T16:12:58.513Z,1.60
2022-10-25T16:15:29.591Z,1.13
2022-10-25T16:17:57.932Z,0.97
2022-10-25T16:20:27.210Z,0.73
2022-10-25T16:22:55.895Z,1.13
2022-10-25T16:25:29.039Z,2.23
2022-10-25T16:28:01.594Z,2.27
2022-10-25T16:30:33.935Z,1.80
2022-10-25T16:33:02.713Z,2.17
2022-10-25T16:35:31.164Z,1.03
2022-10-25T16:37:59.805Z,0.83
2022-10-25T16:40:29.390Z,3.27
2022-10-25T16:42:58.330Z,1.93
2022-10-25T16:45:27.989Z,3.00
2022-10-25T16:47:58.478Z,2.20
2022-10-25T16:50:27.561Z,1.77
2022-10-25T16:52:56.826Z,2.83
2022-10-25T16:55:26.720Z,2.00
2022-10-25T16:57:55.131Z,1.50
2022-10-25T17:00:23.690Z,2.30
2022-10-25T17:02:52.021Z,3.03
2022-10-25T17:05:22.745Z,1.97
2022-10-25T17:07:51.403Z,2.90
2022-10-25T17:10:20.896Z,2.90
2022-10-25T17:12:50.478Z,2.53
2022-10-25T17:15:19.451Z,2.33
2022-10-25T17:17:48.358Z,1.30
2022-10-25T17:20:18.069Z,2.10
2022-10-25T17:22:48.772Z,1.80
2022-10-25T17:25:17.203Z,2.00
2022-10-25T17:27:48.124Z,1.53
2022-10-25T17:30:17.142Z,2.33
2022-10-25T17:32:45.514Z,2.57
2022-10-25T17:35:14.158Z,0.50
2022-10-25T17:37:44.021Z,0.70
2022-10-25T17:40:14.804Z,0.40
2022-10-25T17:42:43.221Z,1.83
2022-10-25T17:45:12.065Z,2.87
2022-10-25T17:47:42.563Z,2.80
2022-10-25T17:50:12.892Z,2.20
2022-10-25T17:52:42.418Z,1.63
2022-10-25T17:55:11.803Z,0.40
2022-10-25T17:57:41.507Z,1.43
2022-10-25T18:00:10.490Z,2.50
2022-10-25T18:02:44.011Z,2.40
2022-10-25T18:05:20.159Z,3.67
2022-10-25T18:07:49.206Z,4.63
2022-10-25T18:10:18.097Z,3.47
2022-10-25T18:12:48.155Z,3.17
2022-10-25T18:15:16.888Z,0.50
2022-10-25T18:17:46.809Z,1.43
2022-10-25T18:20:15.673Z,3.07
2022-10-25T18:22:44.111Z,2.50
2022-10-25T18:25:12.471Z,0.40
2022-10-25T18:27:40.893Z,2.30
2022-10-25T18:30:11.795Z,1.00
2022-10-25T18:32:40.235Z,0.83
2022-10-25T18:35:09.029Z,1.43
2022-10-25T18:37:40.121Z,0.40
2022-10-25T18:40:10.186Z,3.40
2022-10-25T18:42:39.304Z,4.33
2022-10-25T18:45:08.473Z,1.93
2022-10-25T18:47:38.236Z,5.90
2022-10-25T18:50:07.127Z,3.53
2022-10-25T18:52:35.554Z,4.43
2022-10-25T18:55:03.986Z,6.13
2022-10-25T18:57:33.283Z,2.53
2022-10-25T19:00:01.726Z,0.50
2022-10-25T19:02:34.124Z,0.73
2022-10-25T19:07:35.652Z,1.13
2022-10-25T19:10:04.306Z,0.60
2022-10-25T19:12:32.734Z,1.40
2022-10-25T19:15:01.067Z,0.50
2022-10-25T19:17:29.469Z,0.53
2022-10-25T19:19:57.813Z,1.00
2022-10-25T19:22:27.554Z,3.10
2022-10-25T19:24:56.018Z,2.30
2022-10-25T19:27:24.457Z,5.90
2022-10-25T19:29:52.845Z,5.47
2022-10-25T19:32:21.237Z,5.70
2022-10-25T19:37:18.067Z,6.67
2022-10-25T19:39:47.883Z,7.77
2022-10-25T19:42:16.255Z,9.17
2022-10-25T19:44:44.664Z,8.20
2022-10-25T19:47:13.163Z,8.87
2022-10-25T19:49:41.709Z,7.50
2022-10-25T19:52:10.081Z,9.57
2022-10-25T19:54:38.387Z,8.20
2022-10-25T19:57:08.146Z,7.87
2022-10-25T19:59:36.718Z,9.77
2022-10-25T20:02:05.179Z,7.77
2022-10-25T20:04:33.673Z,8.53
2022-10-25T20:07:02.142Z,7.20
2022-10-25T20:09:30.499Z,7.40
2022-10-25T20:11:59.083Z,8.23
2022-10-25T20:14:30.836Z,5.80
2022-10-25T20:16:59.327Z,7.10
2022-10-25T20:19:27.743Z,9.30
2022-10-25T20:21:56.182Z,7.30
2022-10-25T20:24:24.500Z,6.50
2022-10-25T20:26:53.299Z,9.13
2022-10-25T20:29:23.777Z,7.07
2022-10-25T20:31:54.187Z,3.10
2022-10-25T20:34:22.623Z,9.53
2022-10-25T20:36:51.021Z,6.87
2022-10-25T20:39:19.464Z,7.80
2022-10-25T20:41:47.860Z,3.40
2022-10-25T20:44:16.387Z,5.63
2022-10-25T20:46:44.794Z,6.90
2022-10-25T20:49:14.512Z,7.17
2022-10-25T20:51:42.907Z,8.17
2022-10-25T20:54:11.414Z,6.37
2022-10-25T20:56:39.990Z,7.60
2022-10-25T20:59:08.559Z,8.57
2022-10-25T21:01:37.347Z,6.23
2022-10-25T21:04:06.127Z,6.27
2022-10-25T21:06:35.869Z,6.10
2022-10-25T21:09:04.305Z,7.73
2022-10-25T21:11:32.796Z,7.10
2022-10-25T21:14:01.179Z,7.80
2022-10-25T21:16:29.584Z,7.27
2022-10-25T21:18:58.012Z,7.87
2022-10-25T21:21:26.352Z,7.17
2022-10-25T21:23:57.903Z,6.77
2022-10-25T21:26:26.435Z,7.50
2022-10-25T21:28:54.834Z,5.67
2022-10-25T21:31:23.277Z,5.10
2022-10-25T21:33:52.527Z,1.90
2022-10-25T21:36:22.766Z,0.97
2022-10-25T21:38:51.186Z,0.50
2022-10-25T21:41:26.911Z,4.33
2022-10-25T21:43:56.320Z,2.30
2022-10-25T21:46:25.377Z,0.40
2022-10-25T21:48:56.400Z,1.83
2022-10-25T21:51:25.439Z,2.23
2022-10-25T21:53:54.835Z,4.50
2022-10-25T21:56:30.651Z,5.40
2022-10-25T21:59:00.418Z,6.10
2022-10-25T22:01:29.810Z,3.70
2022-10-25T22:03:58.645Z,4.13
2022-10-25T22:06:28.368Z,1.10
2022-10-25T22:08:57.188Z,3.23
2022-10-25T22:11:27.645Z,3.13
2022-10-25T22:13:56.717Z,0.73
2022-10-25T22:16:25.462Z,0.50
2022-10-25T22:18:54.834Z,0.97
2022-10-25T22:21:23.348Z,0.50
2022-10-25T22:23:51.773Z,0.43
2022-10-25T22:26:21.578Z,1.80
2022-10-25T22:28:54.292Z,1.13
2022-10-25T22:31:22.725Z,0.40
2022-10-25T22:33:54.758Z,1.00
2022-10-25T22:36:24.123Z,3.43
2022-10-25T22:38:52.547Z,4.70
2022-10-25T22:41:22.400Z,6.30
2022-10-25T22:43:51.113Z,5.30
2022-10-25T22:46:24.090Z,5.30
2022-10-25T22:48:53.188Z,4.10
2022-10-25T22:51:21.936Z,5.00
2022-10-25T22:53:50.294Z,4.77
2022-10-25T22:56:19.401Z,6.37
2022-10-25T22:58:49.686Z,4.37
2022-10-25T23:01:18.778Z,4.63
2022-10-25T23:03:50.143Z,4.00
2022-10-25T23:06:20.193Z,2.77
2022-10-25T23:08:48.641Z,4.87
2022-10-25T23:11:17.816Z,3.20
2022-10-25T23:13:46.629Z,1.43
2022-10-25T23:16:15.859Z,1.50
2022-10-25T23:18:44.428Z,0.40
2022-10-25T23:21:17.966Z,0.50
2022-10-25T23:23:46.915Z,0.40
2022-10-25T23:26:17.479Z,1.00
2022-10-25T23:28:45.883Z,2.00
2022-10-25T23:31:14.921Z,3.53
2022-10-25T23:33:43.485Z,3.97
2022-10-25T23:36:14.346Z,3.27
2022-10-25T23:38:44.389Z,2.40
2022-10-25T23:41:12.899Z,0.50
2022-10-25T23:43:41.337Z,0.60
2022-10-25T23:46:10.383Z,1.13
2022-10-25T23:48:39.361Z,0.50
2022-10-25T23:51:08.942Z,0.40
2022-10-25T23:53:37.811Z,0.50
2022-10-25T23:56:08.837Z,0.93
2022-10-25T23:58:37.521Z,0.40
